Montgomery Regional (Dannelly Field) Airport
KMGM : now visible

Airfield :











YOU CAN JOIN US ON...

 
LOGIN :

Register | Disclaimer

   EN    FR    IT 

 









Legend :    VFR   Marginal VFR   IFR   Intensive IFR   Very Intensive IFR
Visi :
Ceiling :
>= 8 km
>= 3000ft
5 to 8 km
1000 to 3000 ft
1500m to 5 km
500 to 1000 ft
800 to 1500m
200 to 500 ft
< 800m
< 200 ft
Symbols :   Thunderstorms  Fog  Heavy snow  Heavy precipitations  Wind > 20 kt






- Airport Elevation : 221 ft
- IATA code : MGM


KMGM - Montgomery Regional (Dannelly Field)

CURRENT METAR :
  • 110553Z AUTO 00000KT 10SM CLR 24/22 A3003 RMK AO2 SLP164 T02390222 10339 20239 403670239 58001

EXPIRED METARs :
  • 110453Z AUTO 13003KT 10SM CLR 24/23 A3005 RMK AO2 SLP171 T02440228
  • 110353Z AUTO 17004KT 10SM CLR 24/22 A3005 RMK AO2 SLP171 T02440217
  • 110334Z 15005KT 10SM CLR 26/21 A3004 RMK AO2 T02610206
  • 110319Z AUTO 09006KT 10SM VCTS FEW023 FEW060 27/21 A3003 RMK AO2 LTG DSNT W AND NW T02670211
  • 110304Z 09008KT 10SM SCT025 BKN055 27/22 A3003 RMK AO2 LTG DSNT SE AND W AND NW T02670217

TAF KMGM
Valid from the 11 at 06:00 until the 12 at 06:00 UTC


110529Z 1106/1206 VRB03KT P6SM SCT250
FM111500 32005KT P6SM SCT050
PROB30 1118/1124 4SM TSRA BKN035CB
FM120300 VRB03KT P6SM SCT100
KZTL FIR / North America



MET'MAP, your aeronautical weather chart ! - Copyright ORBIFLY December 2007 - Disclaimer

ORBIFLY MET'MAP TEAM :

Programming & Development : Alexandra Zaïnal
Concept & original design : Baudouin d'Aumeries
Assistance for programming : Marc-Olivier Méhu
Technical & hardware support : Manuel Goepfert

Contact : metmap@orbifly.com




SOURCES & CREDITS :

   NOAA       Earth
Advisory